Time;durP1;ratioP1;P1;durP2;ratioP2;P2;SDS_P1;SDS_P2;PMS_P1;PMS_P2;Temp;Humidity;BMP_temperature;BMP_pressure;BME280_temperature;BME280_humidity;BME280_pressure;Samples;Min_cycle;Max_cycle;Signal;HPM_P1;HPM_P2
2021/07/05 00:02:15;;;;;;;4.82;3.47;;;;;;;15.21;68.01;95900.69;5073267;28;20509;-61
2021/07/05 00:04:41;;;;;;;4.95;3.97;;;;;;;15.19;67.71;95902.56;5073307;28;20028;-62
2021/07/05 00:07:08;;;;;;;10.40;3.58;;;;;;;15.14;67.64;95901.09;5073302;28;20044;-62
2021/07/05 00:09:34;;;;;;;6.07;3.75;;;;;;;15.15;68.06;95902.78;5073085;28;20078;-61
2021/07/05 00:12:00;;;;;;;4.18;3.78;;;;;;;15.14;67.93;95901.09;5073328;28;20020;-61
2021/07/05 00:14:26;;;;;;;5.82;3.92;;;;;;;15.05;68.32;95898.25;5073421;28;20028;-61
2021/07/05 00:16:54;;;;;;;5.75;4.00;;;;;;;14.95;68.90;95887.44;5073206;28;20021;-64
2021/07/05 00:19:19;;;;;;;7.93;4.70;;;;;;;14.96;68.92;95883.91;5073435;28;20029;-61
2021/07/05 00:21:45;;;;;;;6.70;3.95;;;;;;;14.97;68.58;95894.31;5073070;28;20036;-61
2021/07/05 00:24:10;;;;;;;8.38;5.00;;;;;;;15.01;69.04;95897.59;5055284;28;20031;-64
2021/07/05 00:26:36;;;;;;;5.18;4.28;;;;;;;15.00;68.40;95885.38;5073140;28;20051;-64
2021/07/05 00:29:02;;;;;;;5.20;3.90;;;;;;;15.02;69.04;95888.75;5073102;28;20043;-62
2021/07/05 00:31:27;;;;;;;5.68;4.07;;;;;;;15.05;68.92;95899.06;5073051;28;20429;-61
2021/07/05 00:33:53;;;;;;;4.70;4.07;;;;;;;15.08;68.42;95903.31;5073041;28;20095;-63
2021/07/05 00:36:18;;;;;;;5.85;3.85;;;;;;;15.01;68.82;95902.84;5072878;28;20070;-61
2021/07/05 00:38:44;;;;;;;6.03;3.92;;;;;;;14.97;69.10;95906.63;5072966;28;20029;-62
2021/07/05 00:41:10;;;;;;;5.35;3.80;;;;;;;14.97;69.16;95898.75;5072924;28;20494;-63
2021/07/05 00:43:36;;;;;;;4.85;3.47;;;;;;;14.98;69.12;95900.41;5073003;28;20063;-61
2021/07/05 00:46:01;;;;;;;7.82;4.60;;;;;;;14.94;69.14;95899.78;5072716;28;20020;-65
2021/07/05 00:48:27;;;;;;;5.50;3.88;;;;;;;14.95;69.22;95896.22;5072939;28;20035;-62
2021/07/05 00:50:52;;;;;;;6.25;4.20;;;;;;;14.98;68.78;95898.63;5072845;28;20037;-62
2021/07/05 00:53:19;;;;;;;9.07;3.72;;;;;;;14.94;68.99;95891.91;5072656;28;20027;-62
2021/07/05 00:55:45;;;;;;;6.63;4.55;;;;;;;14.97;68.79;95890.84;5073041;28;20068;-65
2021/07/05 00:58:11;;;;;;;4.55;4.15;;;;;;;14.98;68.85;95893.38;5072773;28;20020;-62
2021/07/05 01:00:36;;;;;;;6.20;3.97;;;;;;;14.97;68.80;95896.09;5073970;28;20033;-64
2021/07/05 01:03:03;;;;;;;6.30;4.13;;;;;;;14.96;68.44;95894.44;5076807;28;20060;-62
2021/07/05 01:05:29;;;;;;;5.45;4.50;;;;;;;14.97;68.80;95894.31;5076729;28;20028;-61
2021/07/05 01:07:55;;;;;;;5.32;4.07;;;;;;;15.02;68.21;95883.50;5076596;28;20078;-61
2021/07/05 01:10:23;;;;;;;4.97;4.32;;;;;;;14.99;68.28;95887.16;5076327;28;20048;-60
2021/07/05 01:12:49;;;;;;;8.70;4.10;;;;;;;14.98;68.57;95884.63;5076472;28;20381;-61
2021/07/05 01:15:18;;;;;;;4.07;3.50;;;;;;;14.99;68.46;95883.69;5076531;28;20021;-61
2021/07/05 01:17:44;;;;;;;6.28;4.30;;;;;;;14.98;68.52;95877.56;5076599;28;20025;-64
2021/07/05 01:20:12;;;;;;;6.80;4.40;;;;;;;15.03;68.88;95877.28;5076378;28;20028;-60
2021/07/05 01:22:38;;;;;;;8.23;4.32;;;;;;;15.00;68.77;95872.22;5076293;28;20029;-62
2021/07/05 01:25:06;;;;;;;4.88;3.80;;;;;;;14.98;68.66;95866.19;5076224;28;20032;-61
2021/07/05 01:27:32;;;;;;;5.38;4.10;;;;;;;15.01;68.93;95866.84;5076226;28;20021;-62
2021/07/05 01:29:57;;;;;;;4.30;3.90;;;;;;;15.06;68.91;95878.84;5076165;28;20028;-59
2021/07/05 01:32:23;;;;;;;6.13;4.40;;;;;;;15.03;68.78;95864.09;5076249;28;20103;-65
2021/07/05 01:34:48;;;;;;;4.43;3.72;;;;;;;14.97;69.12;95852.19;5076112;28;20059;-60
2021/07/05 01:37:14;;;;;;;4.38;3.83;;;;;;;14.99;69.34;95858.19;5076140;28;20028;-60
2021/07/05 01:39:40;;;;;;;8.05;4.10;;;;;;;14.97;68.88;95857.47;5075922;28;20021;-64
2021/07/05 01:42:07;;;;;;;7.00;4.45;;;;;;;14.94;68.89;95857.66;5076152;28;20195;-63
2021/07/05 01:44:33;;;;;;;5.55;4.30;;;;;;;14.91;69.08;95861.31;5076162;28;20374;-61
2021/07/05 01:46:59;;;;;;;6.15;4.55;;;;;;;14.88;69.41;95858.06;5075780;28;20027;-63
2021/07/05 01:49:25;;;;;;;6.80;4.05;;;;;;;14.81;69.72;95860.25;5075778;28;20382;-60
2021/07/05 01:51:51;;;;;;;6.15;4.25;;;;;;;14.81;69.73;95856.78;5075769;28;20020;-64
2021/07/05 01:54:17;;;;;;;5.70;4.22;;;;;;;14.78;69.57;95866.56;5075977;28;20489;-63
2021/07/05 01:56:44;;;;;;;8.27;4.28;;;;;;;14.77;69.38;95866.63;5075777;28;20021;-62
2021/07/05 01:59:11;;;;;;;5.25;4.75;;;;;;;14.73;69.61;95865.16;5075687;28;20025;-62
2021/07/05 02:01:37;;;;;;;8.18;4.50;;;;;;;14.73;69.63;95870.41;5075463;28;20482;-64
2021/07/05 02:04:04;;;;;;;4.93;4.28;;;;;;;14.69;70.01;95869.75;5075715;28;20032;-64
2021/07/05 02:06:31;;;;;;;8.65;4.50;;;;;;;14.68;69.77;95875.97;5075698;28;20135;-65
2021/07/05 02:08:56;;;;;;;5.45;3.95;;;;;;;14.70;69.78;95866.22;5075349;28;20036;-62
2021/07/05 02:11:23;;;;;;;6.70;4.28;;;;;;;14.73;69.42;95876.53;5074389;28;20056;-62
2021/07/05 02:13:49;;;;;;;6.85;5.38;;;;;;;14.71;69.81;95867.88;5074835;28;20021;-63
2021/07/05 02:16:15;;;;;;;5.32;4.35;;;;;;;14.72;69.39;95872.19;5075376;28;20382;-66
2021/07/05 02:18:41;;;;;;;5.78;4.00;;;;;;;14.69;69.63;95879.47;5075433;28;20025;-59
2021/07/05 02:21:07;;;;;;;6.95;4.30;;;;;;;14.68;69.57;95870.72;5075242;28;20024;-65
2021/07/05 02:23:34;;;;;;;5.40;4.63;;;;;;;14.61;69.81;95867.66;5075111;28;20032;-64
2021/07/05 02:26:00;;;;;;;5.95;4.50;;;;;;;14.55;70.11;95862.78;5075229;28;20025;-63
2021/07/05 02:28:30;;;;;;;6.70;5.03;;;;;;;14.55;70.41;95861.94;5075246;28;20371;-63
2021/07/05 02:30:57;;;;;;;5.70;4.43;;;;;;;14.52;69.74;95863.84;5075231;28;20078;-60
2021/07/05 02:33:26;;;;;;;5.82;4.53;;;;;;;14.46;69.88;95864.22;5075077;28;20020;-60
2021/07/05 02:35:52;;;;;;;5.75;4.35;;;;;;;14.46;70.49;95863.38;5075115;28;20025;-62
2021/07/05 02:38:20;;;;;;;6.07;5.28;;;;;;;14.45;69.98;95873.03;5074939;28;20078;-61
2021/07/05 02:40:49;;;;;;;6.20;4.47;;;;;;;14.42;70.08;95870.59;5074877;28;20024;-61
2021/07/05 02:43:17;;;;;;;5.65;4.47;;;;;;;14.35;70.18;95867.53;5074802;28;20031;-63
2021/07/05 02:45:45;;;;;;;7.32;4.38;;;;;;;14.37;70.61;95872.69;5074765;28;20384;-61
2021/07/05 02:48:13;;;;;;;5.85;4.55;;;;;;;14.40;70.70;95876.00;5074654;28;20439;-60
2021/07/05 02:50:42;;;;;;;7.63;5.00;;;;;;;14.47;70.93;95875.56;5074704;28;20059;-60
2021/07/05 02:53:09;;;;;;;8.05;4.95;;;;;;;14.49;70.40;95884.22;5074625;28;20052;-64
2021/07/05 02:55:35;;;;;;;8.20;4.40;;;;;;;14.52;70.45;95884.03;5074545;28;20032;-59
2021/07/05 02:58:01;;;;;;;7.72;4.93;;;;;;;14.50;70.20;95884.13;5074556;28;20386;-61
2021/07/05 03:00:29;;;;;;;8.00;5.25;;;;;;;14.47;70.11;95888.72;5074498;28;20025;-61
2021/07/05 03:02:55;;;;;;;6.28;4.80;;;;;;;14.42;70.57;95889.03;5074564;28;20025;-63
2021/07/05 03:05:24;;;;;;;4.97;4.30;;;;;;;14.46;70.33;95881.78;5074519;28;20025;-62
2021/07/05 03:07:51;;;;;;;6.65;4.95;;;;;;;14.45;70.23;95885.38;5074270;28;20020;-59
2021/07/05 03:10:19;;;;;;;8.32;4.65;;;;;;;14.43;70.36;95881.97;5074217;28;20440;-65
2021/07/05 03:12:46;;;;;;;4.75;4.20;;;;;;;14.39;70.44;95887.44;5074418;28;20487;-65
2021/07/05 03:15:15;;;;;;;5.57;4.93;;;;;;;14.39;70.50;95876.09;5074089;28;20489;-62
2021/07/05 03:17:41;;;;;;;7.57;4.75;;;;;;;14.35;70.18;95872.81;5074131;28;20107;-63
2021/07/05 03:20:10;;;;;;;8.75;5.68;;;;;;;14.36;70.41;95873.66;5074087;28;20103;-60
2021/07/05 03:22:36;;;;;;;4.65;4.22;;;;;;;14.28;70.94;95875.00;5073321;28;20028;-62
2021/07/05 03:25:05;;;;;;;5.95;4.88;;;;;;;14.30;71.19;95866.16;5073753;28;20383;-59
2021/07/05 03:27:30;;;;;;;4.57;4.05;;;;;;;14.25;71.17;95875.19;5073936;28;20020;-60
2021/07/05 03:29:56;;;;;;;5.90;4.72;;;;;;;14.33;71.73;95871.22;5074092;28;20032;-60
2021/07/05 03:32:22;;;;;;;5.15;4.53;;;;;;;14.64;71.19;95874.50;5073965;28;20106;-65
2021/07/05 03:34:48;;;;;;;6.70;4.20;;;;;;;14.99;69.93;95873.97;5073743;28;20025;-63
2021/07/05 03:37:14;;;;;;;5.47;4.40;;;;;;;15.44;69.04;95874.59;5073757;28;20100;-64
2021/07/05 03:39:40;;;;;;;4.88;3.95;;;;;;;15.92;67.25;95873.91;5073528;28;20095;-61
2021/07/05 03:42:06;;;;;;;4.93;3.58;;;;;;;16.35;66.27;95870.06;5073792;28;20103;-65
2021/07/05 03:44:31;;;;;;;5.15;3.70;;;;;;;16.83;64.94;95867.53;5073689;28;20024;-64
2021/07/05 03:46:57;;;;;;;4.00;3.60;;;;;;;17.32;63.95;95870.09;5073663;28;20021;-66
2021/07/05 03:49:23;;;;;;;4.45;3.25;;;;;;;17.67;62.29;95867.38;5073539;28;20466;-67
2021/07/05 03:51:49;;;;;;;5.10;3.60;;;;;;;18.08;61.16;95866.91;5073470;28;20025;-62
2021/07/05 03:54:16;;;;;;;5.40;3.60;;;;;;;18.49;59.63;95858.44;5073639;28;20104;-64
2021/07/05 03:56:43;;;;;;;3.40;3.10;;;;;;;18.92;58.89;95859.38;5073539;28;20031;-65
2021/07/05 03:59:08;;;;;;;6.53;2.92;;;;;;;19.32;58.01;95864.03;5073454;28;20028;-63
2021/07/05 04:01:34;;;;;;;3.65;3.30;;;;;;;19.75;57.33;95855.19;5073440;28;20119;-65
2021/07/05 04:03:59;;;;;;;5.32;3.20;;;;;;;20.14;56.96;95849.22;5073349;28;20025;-66
2021/07/05 04:06:25;;;;;;;6.07;3.38;;;;;;;20.55;55.70;95846.50;5073306;28;20032;-65
2021/07/05 04:08:51;;;;;;;5.68;2.90;;;;;;;20.92;54.67;95850.38;5073237;28;20055;-66
2021/07/05 04:11:18;;;;;;;4.28;3.63;;;;;;;21.23;53.75;95854.66;5073061;28;20177;-66
2021/07/05 04:13:44;;;;;;;3.85;3.33;;;;;;;21.49;53.06;95854.91;5073213;28;20469;-63
2021/07/05 04:16:09;;;;;;;5.50;3.10;;;;;;;21.87;52.88;95862.09;5073234;28;20020;-65
2021/07/05 04:18:35;;;;;;;6.28;3.00;;;;;;;;;;5073181;28;20413;-61
2021/07/05 04:21:00;;;;;;;3.33;3.05;;;;;;;22.56;51.84;95859.94;5073039;28;20028;-62
2021/07/05 04:23:26;;;;;;;5.10;3.10;;;;;;;22.90;50.93;95863.78;5073379;28;20067;-64
2021/07/05 04:25:53;;;;;;;4.03;3.28;;;;;;;23.30;51.12;95860.81;5073035;28;20024;-66
2021/07/05 04:28:19;;;;;;;4.95;3.40;;;;;;;23.62;49.52;95858.56;5073018;28;20032;-64
2021/07/05 04:30:45;;;;;;;3.50;3.20;;;;;;;23.84;48.99;95863.34;5073038;28;20020;-66
2021/07/05 04:33:10;;;;;;;4.85;3.22;;;;;;;24.08;48.56;95867.13;5072990;28;20065;-65
2021/07/05 04:35:36;;;;;;;4.00;3.00;;;;;;;24.29;48.11;95860.56;5072312;28;20021;-65
2021/07/05 04:38:03;;;;;;;4.60;3.25;;;;;;;24.46;47.75;95865.97;5073070;28;20359;-64
2021/07/05 04:40:32;;;;;;;3.58;3.28;;;;;;;24.67;47.31;95865.53;5072859;28;20104;-64
2021/07/05 04:42:58;;;;;;;3.95;3.08;;;;;;;24.94;47.30;95862.75;5072824;28;20071;-63
2021/07/05 04:45:28;;;;;;;4.28;3.40;;;;;;;25.14;47.63;95860.63;5072875;28;20056;-69
2021/07/05 04:47:58;;;;;;;4.90;3.20;;;;;;;25.45;47.58;95859.94;5072889;28;20048;-61
2021/07/05 04:50:24;;;;;;;4.63;3.42;;;;;;;25.70;46.39;95859.09;5072972;28;20036;-65
2021/07/05 04:52:50;;;;;;;3.70;2.92;;;;;;;25.96;47.03;95860.69;5072880;28;20078;-68
2021/07/05 04:55:18;;;;;;;8.27;3.00;;;;;;;26.31;46.45;95858.59;5072766;28;20059;-66
2021/07/05 04:57:45;;;;;;;3.40;3.10;;;;;;;26.62;45.96;95862.28;5072735;28;20470;-66
2021/07/05 05:00:15;;;;;;;3.67;2.92;;;;;;;26.96;46.29;95854.88;5072758;28;20028;-65
2021/07/05 05:02:42;;;;;;;4.40;3.15;;;;;;;27.19;45.39;95856.75;5072804;28;20029;-66
2021/07/05 05:05:09;;;;;;;6.97;3.00;;;;;;;27.47;44.47;95869.59;5072869;28;20033;-63
2021/07/05 05:07:35;;;;;;;6.28;3.55;;;;;;;27.61;43.57;95867.97;5072863;28;20082;-66
2021/07/05 05:10:03;;;;;;;4.18;3.30;;;;;;;27.68;41.63;95870.78;5072315;28;20053;-64
2021/07/05 05:12:29;;;;;;;5.55;3.20;;;;;;;27.87;42.87;95872.09;5072642;28;20097;-67
2021/07/05 05:14:56;;;;;;;4.22;3.70;;;;;;;28.17;44.47;95874.78;5072666;28;20028;-64
2021/07/05 05:17:22;;;;;;;3.17;2.90;;;;;;;28.40;44.39;95878.41;5054854;28;20031;-65
2021/07/05 05:19:48;;;;;;;4.22;3.05;;;;;;;28.58;43.78;95869.94;5072465;28;20016;-65
2021/07/05 05:22:14;;;;;;;5.95;3.03;;;;;;;28.73;44.32;95876.13;5072423;28;20017;-66
2021/07/05 05:24:39;;;;;;;3.53;3.22;;;;;;;28.91;41.89;95874.88;5072656;28;20504;-68
2021/07/05 05:27:05;;;;;;;5.25;3.38;;;;;;;29.14;42.49;95874.72;5072604;28;20047;-63
2021/07/05 05:29:31;;;;;;;3.88;3.35;;;;;;;29.35;41.70;95878.41;5072403;28;20025;-66
2021/07/05 05:31:57;;;;;;;5.43;3.08;;;;;;;29.54;40.41;95873.41;5072659;28;20020;-66
2021/07/05 05:34:24;;;;;;;4.78;3.13;;;;;;;29.73;40.12;95877.31;5072398;28;20048;-63
2021/07/05 05:36:49;;;;;;;3.78;3.20;;;;;;;29.85;39.39;95871.34;5072466;28;20024;-64
2021/07/05 05:39:15;;;;;;;6.13;3.60;;;;;;;29.98;40.65;95865.25;5072546;28;20035;-66
2021/07/05 05:41:41;;;;;;;6.10;3.67;;;;;;;30.09;40.69;95866.53;5072329;28;20470;-64
2021/07/05 05:44:07;;;;;;;5.38;3.30;;;;;;;30.31;39.37;95861.09;5072327;28;20387;-64
2021/07/05 05:46:33;;;;;;;3.35;3.05;;;;;;;30.48;38.71;95865.09;5073469;28;20043;-64
2021/07/05 05:49:00;;;;;;;7.00;3.67;;;;;;;30.64;40.64;95863.09;5075898;28;20035;-65
2021/07/05 05:51:32;;;;;;;3.63;3.30;;;;;;;30.73;37.27;95858.34;5075879;28;20016;-64
2021/07/05 05:54:03;;;;;;;7.10;3.00;;;;;;;30.84;37.39;95865.88;5075767;28;20028;-65
2021/07/05 05:56:31;;;;;;;6.05;3.35;;;;;;;30.83;37.75;95855.28;5075855;28;20466;-67
2021/07/05 05:59:01;;;;;;;4.13;3.35;;;;;;;30.93;39.75;95866.50;5075660;28;20028;-69
2021/07/05 06:01:28;;;;;;;3.58;3.28;;;;;;;31.12;40.56;95867.59;5075624;28;20032;-65
2021/07/05 06:03:54;;;;;;;7.00;3.30;;;;;;;31.25;40.58;95858.69;5075532;28;20017;-63
2021/07/05 06:06:20;;;;;;;4.40;3.10;;;;;;;31.20;41.68;95852.22;5075465;28;20021;-66
2021/07/05 06:08:46;;;;;;;6.88;3.60;;;;;;;31.37;40.44;95855.38;5075478;28;20012;-65
2021/07/05 06:11:12;;;;;;;3.47;2.90;;;;;;;31.21;37.61;95856.59;5057578;28;20048;-62
2021/07/05 06:13:37;;;;;;;4.75;3.03;;;;;;;31.12;38.18;95858.66;5075447;28;20060;-64
2021/07/05 06:16:03;;;;;;;5.80;3.55;;;;;;;31.44;38.88;95858.91;5075330;28;20078;-66
2021/07/05 06:18:29;;;;;;;4.25;3.15;;;;;;;31.77;37.75;95862.63;5075279;28;20020;-65
2021/07/05 06:20:55;;;;;;;6.57;3.25;;;;;;;32.07;36.51;95862.19;5075257;28;20028;-63
2021/07/05 06:23:29;;;;;;;4.57;3.10;;;;;;;32.32;36.56;95858.78;5075287;28;20016;-60
2021/07/05 06:25:56;;;;;;;4.85;3.15;;;;;;;32.58;35.32;95848.94;5075419;28;20055;-65
2021/07/05 06:28:25;;;;;;;3.63;3.25;;;;;;;32.82;36.32;95853.81;5057210;28;20024;-63
2021/07/05 06:30:51;;;;;;;5.43;3.10;;;;;;;33.01;36.04;95844.75;5075069;28;20050;-64
2021/07/05 06:33:18;;;;;;;3.67;3.33;;;;;;;33.30;35.95;95848.94;5075229;28;20020;-65
2021/07/05 06:35:45;;;;;;;3.50;3.20;;;;;;;33.38;33.42;95846.78;5075194;28;20021;-65
2021/07/05 06:38:12;;;;;;;3.83;3.53;;;;;;;33.44;31.26;95845.09;5075069;28;20029;-64
2021/07/05 06:40:38;;;;;;;4.47;3.00;;;;;;;33.37;32.04;95838.88;5074871;28;20024;-63
2021/07/05 06:43:05;;;;;;;3.92;3.33;;;;;;;33.53;31.40;95842.94;5074894;28;20154;-65
2021/07/05 06:45:31;;;;;;;3.55;2.80;;;;;;;33.60;29.76;95837.47;5074862;28;20060;-66
2021/07/05 06:47:57;;;;;;;3.88;2.70;;;;;;;33.76;29.35;95834.19;5074992;28;20025;-64
2021/07/05 06:50:23;;;;;;;3.42;2.85;;;;;;;33.79;26.38;95838.34;5074620;28;20030;-63
2021/07/05 06:52:49;;;;;;;3.90;2.70;;;;;;;33.83;29.04;95831.41;5074847;28;20378;-66
2021/07/05 06:55:15;;;;;;;6.50;3.10;;;;;;;33.97;29.98;95825.84;5074703;28;20021;-63
2021/07/05 06:57:41;;;;;;;7.32;2.55;;;;;;;34.24;28.94;95831.00;5073980;28;20044;-64
2021/07/05 07:00:13;;;;;;;3.70;2.65;;;;;;;34.43;29.08;95833.72;5074382;28;20016;-66
2021/07/05 07:02:39;;;;;;;4.15;2.67;;;;;;;34.64;25.84;95829.69;5074553;28;20403;-61
2021/07/05 07:05:11;;;;;;;3.25;2.88;;;;;;;34.59;28.83;95833.09;5074595;28;20032;-65
2021/07/05 07:07:42;;;;;;;2.65;2.45;;;;;;;34.67;28.19;95829.25;5074513;28;20046;-65
2021/07/05 07:10:09;;;;;;;3.78;2.60;;;;;;;34.65;26.09;95824.06;5074171;28;20406;-62
2021/07/05 07:12:36;;;;;;;3.30;3.00;;;;;;;34.61;26.54;95825.53;5074568;28;20021;-65
2021/07/05 07:15:04;;;;;;;5.03;2.65;;;;;;;34.56;27.68;95821.84;5074410;28;20513;-65
2021/07/05 07:17:35;;;;;;;4.63;2.60;;;;;;;34.37;26.92;95819.19;5074271;28;20108;-64
2021/07/05 07:20:04;;;;;;;3.20;2.75;;;;;;;34.37;27.05;95820.00;5073995;28;20028;-65
2021/07/05 07:22:29;;;;;;;2.92;2.70;;;;;;;34.62;29.50;95820.94;5074206;28;20046;-65
2021/07/05 07:24:55;;;;;;;8.57;2.58;;;;;;;34.68;26.90;95819.22;5073956;28;20024;-63
2021/07/05 07:27:21;;;;;;;3.75;2.97;;;;;;;34.72;27.08;95809.53;5074040;28;20017;-63
2021/07/05 07:29:46;;;;;;;3.65;3.15;;;;;;;34.57;29.52;95812.66;5074008;28;20036;-62
2021/07/05 07:32:12;;;;;;;3.35;2.58;;;;;;;34.36;26.52;95810.22;5073935;28;20021;-65
2021/07/05 07:34:39;;;;;;;3.72;2.45;;;;;;;34.28;26.26;95814.03;5073892;28;20025;-67
2021/07/05 07:37:07;;;;;;;4.15;2.60;;;;;;;34.28;28.78;95808.63;5073835;28;20093;-65
2021/07/05 07:39:44;;;;;;;4.00;2.53;;;;;;;34.25;25.91;95800.13;5073897;28;20126;-62
2021/07/05 07:42:10;;;;;;;2.75;2.38;;;;;;;34.32;26.58;95813.59;5073697;28;20032;-66
2021/07/05 07:44:36;;;;;;;3.47;2.63;;;;;;;34.44;27.50;95810.94;5073625;28;20020;-63
2021/07/05 07:47:03;;;;;;;4.78;2.47;;;;;;;34.50;27.35;95816.31;5073671;28;20029;-66
2021/07/05 07:49:30;;;;;;;5.53;2.70;;;;;;;34.53;27.83;95813.09;5073663;28;20544;-66
2021/07/05 07:52:05;;;;;;;3.60;2.63;;;;;;;34.20;25.21;95817.09;5073634;28;20031;-64
2021/07/05 07:54:32;;;;;;;3.50;2.50;;;;;;;34.35;25.90;95810.44;5073562;28;20029;-67
2021/07/05 07:56:57;;;;;;;2.40;2.20;;;;;;;34.60;27.85;95809.47;5073323;28;20028;-67
2021/07/05 07:59:23;;;;;;;4.75;2.55;;;;;;;34.70;26.40;95814.41;5073545;28;20035;-65
2021/07/05 08:01:49;;;;;;;5.18;2.88;;;;;;;34.28;26.04;95807.81;5073471;28;20351;-65
2021/07/05 08:04:15;;;;;;;4.10;2.65;;;;;;;34.47;26.49;95808.63;5073326;28;20492;-62
2021/07/05 08:06:41;;;;;;;6.25;2.90;;;;;;;34.46;27.37;95815.06;5073245;28;20030;-63
2021/07/05 08:09:08;;;;;;;3.58;2.63;;;;;;;34.52;25.67;95811.44;5073430;28;20040;-66
2021/07/05 08:11:35;;;;;;;5.13;2.75;;;;;;;34.44;26.00;95808.22;5072958;28;20040;-66
2021/07/05 08:14:05;;;;;;;3.53;2.78;;;;;;;34.29;26.47;95804.03;5073307;28;20032;-61
2021/07/05 08:16:31;;;;;;;2.78;2.58;;;;;;;34.14;26.29;95810.69;5073253;28;20024;-64
2021/07/05 08:18:56;;;;;;;3.22;2.95;;;;;;;34.19;29.39;95804.56;5055410;28;20028;-62
2021/07/05 08:21:23;;;;;;;3.83;2.58;;;;;;;33.98;25.96;95795.78;5073006;28;20035;-65
2021/07/05 08:23:49;;;;;;;3.03;2.72;;;;;;;33.80;29.32;95795.81;5073001;28;20078;-65
2021/07/05 08:26:16;;;;;;;3.47;3.17;;;;;;;33.92;26.43;95799.44;5073058;28;20413;-66
2021/07/05 08:28:42;;;;;;;5.65;3.03;;;;;;;33.92;27.46;95802.16;5073088;28;20035;-64
2021/07/05 08:31:08;;;;;;;4.55;3.00;;;;;;;33.60;28.09;95794.13;5072983;28;20116;-62
2021/07/05 08:33:34;;;;;;;5.63;2.92;;;;;;;33.58;28.11;95793.47;5072902;28;20028;-66
2021/07/05 08:36:01;;;;;;;3.38;3.08;;;;;;;33.37;27.80;95787.41;5072887;28;20107;-62
2021/07/05 08:38:27;;;;;;;5.47;3.20;;;;;;;33.38;28.45;95797.22;5073167;28;20017;-64
2021/07/05 08:40:55;;;;;;;3.78;3.20;;;;;;;33.19;27.87;95799.84;5072973;28;20024;-66
2021/07/05 08:43:27;;;;;;;3.20;2.90;;;;;;;33.47;28.50;95785.03;5073000;28;20478;-62
2021/07/05 08:46:03;;;;;;;3.05;2.75;;;;;;;33.64;28.66;95790.75;5072913;28;20031;-64
2021/07/05 08:48:32;;;;;;;3.45;3.00;;;;;;;33.65;27.09;95776.13;5073049;28;20025;-65
2021/07/05 08:51:02;;;;;;;3.58;3.20;;;;;;;33.50;27.74;95781.06;5073020;28;20104;-62
2021/07/05 08:53:28;;;;;;;5.50;3.28;;;;;;;33.43;28.55;95780.31;5072990;28;20032;-65
2021/07/05 08:55:54;;;;;;;4.15;3.03;;;;;;;33.42;27.79;95776.75;5072868;28;20562;-66
2021/07/05 08:58:20;;;;;;;12.55;3.78;;;;;;;32.90;29.65;95777.78;5072712;28;20094;-64
2021/07/05 09:00:46;;;;;;;5.43;3.28;;;;;;;32.73;30.81;95783.72;5072727;28;20378;-64
2021/07/05 09:03:12;;;;;;;3.88;3.30;;;;;;;32.87;30.19;95784.44;5072836;28;20017;-62
2021/07/05 09:05:38;;;;;;;7.70;3.13;;;;;;;32.96;29.60;95781.47;5072762;28;20025;-62
2021/07/05 09:08:11;;;;;;;3.38;3.08;;;;;;;32.85;27.71;95783.00;5072845;28;20039;-63
2021/07/05 09:10:52;;;;;;;3.60;2.92;;;;;;;32.83;27.83;95785.13;5072459;28;20045;-65
2021/07/05 09:13:25;;;;;;;3.28;2.78;;;;;;;32.75;29.37;95773.47;5072725;28;20478;-62
2021/07/05 09:15:57;;;;;;;3.50;2.92;;;;;;;32.76;26.92;95774.31;5072760;28;20021;-65
2021/07/05 09:18:38;;;;;;;4.03;3.60;;;;;;;32.41;28.47;95775.53;5072671;28;20020;-64
2021/07/05 09:21:21;;;;;;;3.45;3.10;;;;;;;32.17;29.57;95782.53;5073032;28;20032;-65
2021/07/05 09:24:03;;;;;;;7.10;3.17;;;;;;;31.96;29.00;95774.47;5076309;28;20035;-64
2021/07/05 09:26:59;;;;;;;5.70;2.90;;;;;;;31.39;28.57;95770.41;5076356;28;20039;-64
2021/07/05 09:29:24;;;;;;;3.67;3.38;;;;;;;31.53;29.13;95767.69;5076515;28;20574;-66
2021/07/05 09:31:56;;;;;;;4.00;3.60;;;;;;;31.61;31.56;95780.16;5058326;28;20111;-65
2021/07/05 09:34:32;;;;;;;3.83;2.78;;;;;;;31.46;29.95;95758.78;5076219;28;20048;-66
2021/07/05 09:37:22;;;;;;;4.68;3.05;;;;;;;31.43;31.54;95757.31;5076051;28;20474;-62
2021/07/05 10:05:10;;;;;;;3.28;3.00;;;;;;;33.23;29.06;95740.66;5095759;27;1637242;-66
2021/07/05 10:07:36;;;;;;;3.38;3.08;;;;;;;33.08;29.05;95751.84;5151972;27;20031;-64
2021/07/05 10:10:10;;;;;;;5.05;2.85;;;;;;;32.94;28.28;95745.66;5152027;27;20033;-64
2021/07/05 10:12:36;;;;;;;3.78;3.35;;;;;;;32.90;28.26;95729.03;5152004;27;20148;-66
2021/07/05 10:15:11;;;;;;;3.40;3.10;;;;;;;32.89;30.19;95730.06;5151932;27;20519;-65
2021/07/05 10:17:46;;;;;;;5.35;2.88;;;;;;;32.96;28.45;95730.03;5151831;27;20468;-65
2021/07/05 10:20:19;;;;;;;5.00;2.95;;;;;;;32.98;28.93;95731.47;5151950;27;20027;-67
2021/07/05 10:22:47;;;;;;;3.08;2.78;;;;;;;32.82;28.80;95718.47;5151736;27;20030;-65
2021/07/05 10:25:13;;;;;;;3.05;2.75;;;;;;;32.91;29.16;95722.56;5151789;27;20380;-63
2021/07/05 10:27:40;;;;;;;4.10;3.42;;;;;;;32.77;30.23;95716.41;5151555;27;20038;-67
2021/07/05 10:30:08;;;;;;;4.65;3.22;;;;;;;32.41;31.06;95724.13;5151535;27;20061;-64
2021/07/05 10:32:35;;;;;;;6.85;3.45;;;;;;;32.47;32.28;95725.16;5151401;27;20490;-65
2021/07/05 10:35:01;;;;;;;5.63;3.33;;;;;;;32.47;28.73;95712.44;5151415;27;20031;-60
2021/07/05 10:37:35;;;;;;;4.00;3.45;;;;;;;32.01;30.46;95717.06;5151596;27;20023;-64
2021/07/05 10:40:03;;;;;;;3.85;3.35;;;;;;;31.75;30.57;95722.31;5151482;27;20357;-68
2021/07/05 10:42:28;;;;;;;3.55;3.25;;;;;;;31.46;32.13;95716.41;5151321;27;20030;-66
2021/07/05 10:44:54;;;;;;;4.55;3.60;;;;;;;30.92;29.98;95716.41;5151320;27;20479;-62
2021/07/05 10:47:43;;;;;;;3.42;3.13;;;;;;;30.46;33.19;95716.13;5151326;27;20015;-63
2021/07/05 10:50:29;;;;;;;4.22;3.83;;;;;;;30.36;34.16;95716.53;5151330;27;20037;-62
2021/07/05 10:52:55;;;;;;;4.97;3.30;;;;;;;30.31;33.60;95713.59;5150955;27;20492;-64
2021/07/05 10:55:37;;;;;;;3.75;3.45;;;;;;;30.22;35.46;95715.66;5151174;27;20098;-65
2021/07/05 10:58:03;;;;;;;5.72;3.65;;;;;;;30.34;32.82;95707.81;5150974;27;20436;-66
2021/07/05 11:00:43;;;;;;;3.65;3.35;;;;;;;30.51;34.39;95718.22;5151189;27;20019;-63
2021/07/05 11:03:09;;;;;;;5.72;3.67;;;;;;;30.71;33.52;95706.63;5150867;27;20036;-64
2021/07/05 11:05:45;;;;;;;6.30;3.85;;;;;;;30.73;33.40;95705.38;5138337;27;20524;-65
2021/07/05 11:08:22;;;;;;;4.25;3.90;;;;;;;30.73;32.58;95708.06;5136938;27;20034;-62
2021/07/05 11:11:09;;;;;;;4.78;3.80;;;;;;;30.80;32.23;95702.72;5137146;27;20031;-66
2021/07/05 11:13:35;;;;;;;4.10;3.50;;;;;;;31.05;34.07;95695.84;5136821;27;20027;-63
2021/07/05 11:16:00;;;;;;;5.35;3.45;;;;;;;31.30;30.98;95689.81;5136918;27;20092;-63
2021/07/05 11:18:39;;;;;;;3.78;3.42;;;;;;;31.55;31.00;95698.09;5118513;27;20358;-63
2021/07/05 11:21:06;;;;;;;4.07;3.50;;;;;;;31.77;30.55;95701.34;5136701;27;20035;-64
2021/07/05 11:24:12;;;;;;;3.78;3.38;;;;;;;31.97;32.55;95702.31;5136766;27;20054;-65
2021/07/05 11:26:41;;;;;;;4.20;3.35;;;;;;;31.98;32.58;95696.69;5136680;27;20031;-66
2021/07/05 11:29:15;;;;;;;3.80;3.45;;;;;;;31.83;31.82;95699.66;5136736;27;20015;-65
2021/07/05 11:31:50;;;;;;;6.03;3.55;;;;;;;32.08;28.87;95682.72;5136506;27;20077;-64
2021/07/05 11:34:29;;;;;;;4.45;3.60;;;;;;;32.38;31.48;95690.22;5136529;27;20057;-63
2021/07/05 11:37:13;;;;;;;4.20;3.80;;;;;;;32.44;30.48;95696.66;5136501;27;20031;-64
2021/07/05 11:39:42;;;;;;;3.40;2.78;;;;;;;32.32;29.63;95695.69;5136356;27;20027;-66
2021/07/05 11:42:09;;;;;;;3.22;2.92;;;;;;;32.25;29.96;95696.56;5136278;27;20030;-62
2021/07/05 11:44:49;;;;;;;5.47;3.40;;;;;;;32.09;28.09;95691.66;5136410;27;20045;-63
2021/07/05 11:47:37;;;;;;;6.93;3.70;;;;;;;31.89;30.72;95695.25;5136356;27;20034;-62
2021/07/05 11:50:20;;;;;;;3.47;3.17;;;;;;;31.98;31.23;95690.44;5136373;27;20399;-62
2021/07/05 11:52:52;;;;;;;4.45;3.40;;;;;;;32.12;30.14;95688.53;5136086;27;20106;-62
2021/07/05 11:55:19;;;;;;;3.58;3.28;;;;;;;32.22;34.02;95688.88;5136134;27;20020;-66
2021/07/05 11:57:45;;;;;;;3.60;3.30;;;;;;;32.40;32.31;95693.56;5136114;27;20024;-65
2021/07/05 12:00:12;;;;;;;3.92;3.63;;;;;;;32.34;30.84;95683.59;5136475;27;20456;-66
2021/07/05 12:02:38;;;;;;;5.82;3.63;;;;;;;32.26;30.87;95690.09;5136041;27;20027;-67
2021/07/05 12:05:08;;;;;;;4.13;3.20;;;;;;;32.26;31.11;95697.38;5113899;28;20032;-62